M I D A S
Marine Information and Data Acquisition System
Tripno 1018 of the Zeeleeuw from 2005-02-28 08:10:00 to 2005-02-28 16:05:00
Back to CruiseResearch ActivitiesStationsMapUnderway DataData graphs

EquipmentUnitsComments
TimeDGPSUTC
LatitudeDGPSDM.mWGS84
LongitudeDGPSDM.mWGS84
SpeedMeteo Stationm/sRelative wind speed
DirectionMeteo StationdegRelative wind direction
TemperatureMeteo Stationdeg CelciusAir temperature
PressureMeteo StationPaAtmospheric pressure
HumidityMeteo Station%Relative humidity
Missing or incorrect values are displayed as -999
Metereological data collected by the RV Zeeleeuw from 2005-02-28 08:10:00 to 2005-02-28 16:05:00
                                                                                    Next 1000 lines
Time Latitude Longitude Speed Direction Temperature Pressure Humidity
2005-02-28 08:10:07 51°13.595 2°56.103 1.1 30 -2.2 102790 43
2005-02-28 08:10:13 51°13.595 2°56.103 1.3 30 -2.2 102790 43
2005-02-28 08:10:17 51°13.595 2°56.103 1.3 30 -2.2 102790 43
2005-02-28 08:10:23 51°13.595 2°56.104 1.3 27 -2.2 102790 43
2005-02-28 08:10:27 51°13.595 2°56.104 1.2 27 -2.2 102780 44
2005-02-28 08:10:33 51°13.595 2°56.104 1.2 25 -2.2 102780 44
2005-02-28 08:10:37 51°13.595 2°56.104 1.3 25 -2.2 102790 44
2005-02-28 08:10:43 51°13.595 2°56.104 1.3 25 -2.2 102790 44
2005-02-28 08:10:47 51°13.595 2°56.104 1.2 26 -2.2 102790 44
2005-02-28 08:10:53 51°13.595 2°56.104 1.1 27 -2.2 102790 44
2005-02-28 08:10:57 51°13.595 2°56.103 1.2 27 -2.2 102790 45
2005-02-28 08:11:03 51°13.595 2°56.103 1.2 28 -2.2 102790 45
2005-02-28 08:11:07 51°13.595 2°56.103 1.2 27 -2.2 102790 45
2005-02-28 08:11:12 51°13.594 2°56.103 1.2 28 -2.2 102790 45
2005-02-28 08:11:18 51°13.594 2°56.103 1.1 27 -2.3 102780 45
2005-02-28 08:11:23 51°13.594 2°56.103 1 33 -2.3 102780 45
2005-02-28 08:11:27 51°13.595 2°56.102 0.9 35 -2.3 102780 45
2005-02-28 08:11:33 51°13.595 2°56.099 0.5 35 -2.3 102780 45
2005-02-28 08:11:37 51°13.596 2°56.097 0.5 35 -2.3 102780 44
2005-02-28 08:11:43 51°13.597 2°56.093 0.1 35 -2.3 102780 44
2005-02-28 08:11:48 51°13.598 2°56.089 0.1 36 -2.3 102790 44
2005-02-28 08:11:53 51°13.6 2°56.085 -999 36 -2.3 102790 44
2005-02-28 08:11:58 51°13.602 2°56.079 -999 36 -2.3 102790 44
2005-02-28 08:12:03 51°13.604 2°56.075 -999 36 -2.3 102790 44
2005-02-28 08:12:08 51°13.606 2°56.068 -999 40 -2.3 102790 44
2005-02-28 08:12:13 51°13.609 2°56.061 0.4 54 -2.3 102790 44
2005-02-28 08:12:17 51°13.611 2°56.056 0.4 59 -2.3 102780 45
2005-02-28 08:12:23 51°13.613 2°56.048 0.5 127 -2.3 102780 45
2005-02-28 08:12:28 51°13.616 2°56.04 0.5 131 -2.3 102790 45
2005-02-28 08:12:33 51°13.618 2°56.031 0.6 155 -2.3 102790 45
2005-02-28 08:12:37 51°13.62 2°56.024 0.6 155 -2.3 102780 45
2005-02-28 08:12:43 51°13.623 2°56.014 0.7 159 -2.3 102780 45
2005-02-28 08:12:47 51°13.625 2°56.007 0.8 159 -2.3 102790 44
2005-02-28 08:12:53 51°13.628 2°55.994 0.8 159 -2.3 102790 44
2005-02-28 08:12:57 51°13.63 2°55.986 0.7 155 -2.3 102780 44
2005-02-28 08:13:03 51°13.633 2°55.975 1.9 167 -2.3 102780 44
2005-02-28 08:13:07 51°13.635 2°55.966 1.4 183 -2.3 102780 45
2005-02-28 08:13:13 51°13.639 2°55.953 1.6 177 -2.3 102780 45
2005-02-28 08:13:17 51°13.642 2°55.944 1.8 175 -2.3 102790 45
2005-02-28 08:13:23 51°13.646 2°55.933 1.3 193 -2.3 102790 45
2005-02-28 08:13:28 51°13.65 2°55.922 1 177 -2.3 102780 45
2005-02-28 08:13:33 51°13.655 2°55.911 1.9 170 -2.3 102780 45
2005-02-28 08:13:37 51°13.659 2°55.903 1.6 167 -2.3 102780 45
2005-02-28 08:13:43 51°13.664 2°55.892 1.9 199 -2.3 102780 45
2005-02-28 08:13:48 51°13.669 2°55.882 1.9 197 -2.3 102780 45
2005-02-28 08:13:53 51°13.674 2°55.872 2.2 211 -2.3 102780 45
2005-02-28 08:13:57 51°13.679 2°55.865 2.5 208 -2.3 102780 45
2005-02-28 08:14:03 51°13.685 2°55.854 1.8 189 -2.3 102780 45
2005-02-28 08:14:07 51°13.69 2°55.845 1.1 191 -2.3 102780 45
2005-02-28 08:14:13 51°13.696 2°55.834 1.7 177 -2.3 102780 45
2005-02-28 08:14:18 51°13.702 2°55.825 2.1 174 -2.4 102780 45
2005-02-28 08:14:23 51°13.707 2°55.816 1.6 185 -2.4 102780 45
2005-02-28 08:14:28 51°13.712 2°55.805 2.1 171 -2.4 102780 46
2005-02-28 08:14:33 51°13.718 2°55.796 1.5 198 -2.4 102780 46
2005-02-28 08:14:37 51°13.721 2°55.788 1.6 203 -2.3 102780 46
2005-02-28 08:14:43 51°13.726 2°55.778 1.8 209 -2.3 102780 46
2005-02-28 08:14:49 51°13.731 2°55.767 1.8 212 -2.4 102780 46
2005-02-28 08:14:53 51°13.734 2°55.758 1.6 208 -2.4 102780 46
2005-02-28 08:14:57 51°13.737 2°55.75 1.9 180 -2.4 102780 46
2005-02-28 08:15:03 51°13.741 2°55.739 1.8 167 -2.4 102780 46
2005-02-28 08:15:08 51°13.744 2°55.729 1.8 165 -2.4 102780 46
2005-02-28 08:15:13 51°13.747 2°55.72 2.3 158 -2.4 102780 46
2005-02-28 08:15:17 51°13.749 2°55.713 2.1 157 -2.4 102780 46
2005-02-28 08:15:23 51°13.751 2°55.703 1.8 159 -2.4 102780 46
2005-02-28 08:15:29 51°13.753 2°55.695 1.6 159 -2.4 102780 47
2005-02-28 08:15:33 51°13.754 2°55.69 1.1 148 -2.4 102780 47
2005-02-28 08:15:37 51°13.755 2°55.686 0.9 141 -2.4 102780 46
2005-02-28 08:15:42 51°13.756 2°55.683 0.6 134 -2.4 102780 46
2005-02-28 08:15:47 51°13.757 2°55.682 0.6 126 -2.4 102780 46
2005-02-28 08:15:53 51°13.758 2°55.681 0.7 107 -2.4 102780 46
2005-02-28 08:15:57 51°13.759 2°55.682 0.9 104 -2.4 102780 45
2005-02-28 08:16:03 51°13.76 2°55.685 1 95 -2.4 102780 45
2005-02-28 08:16:07 51°13.761 2°55.686 1.2 95 -2.4 102780 45
2005-02-28 08:16:13 51°13.763 2°55.688 1.1 96 -2.4 102780 45
2005-02-28 08:16:17 51°13.764 2°55.689 1 98 -2.4 102780 45
2005-02-28 08:16:22 51°13.764 2°55.689 1.3 122 -2.4 102780 45
2005-02-28 08:16:27 51°13.765 2°55.688 1.5 133 -2.4 102780 45
2005-02-28 08:16:33 51°13.765 2°55.686 1.7 141 -2.4 102780 45
2005-02-28 08:16:38 51°13.764 2°55.684 1.7 137 -2.4 102780 46
2005-02-28 08:16:43 51°13.763 2°55.681 1.8 145 -2.4 102780 46
2005-02-28 08:16:47 51°13.762 2°55.678 1.7 149 -2.4 102780 46
2005-02-28 08:16:53 51°13.761 2°55.674 1.8 153 -2.4 102780 46
2005-02-28 08:16:58 51°13.76 2°55.671 1.6 153 -2.4 102780 47
2005-02-28 08:17:03 51°13.759 2°55.669 1.2 149 -2.4 102780 47
2005-02-28 08:17:07 51°13.759 2°55.668 1 148 -2.4 102780 46
2005-02-28 08:17:13 51°13.761 2°55.668 0.6 136 -2.4 102780 46
2005-02-28 08:17:17 51°13.764 2°55.669 0.7 126 -2.4 102780 46
2005-02-28 08:17:22 51°13.767 2°55.669 0.8 29 -2.4 102780 46
2005-02-28 08:17:28 51°13.772 2°55.669 0.8 38 -2.4 102780 46
2005-02-28 08:17:33 51°13.776 2°55.668 0.6 44 -2.4 102780 46
2005-02-28 08:17:37 51°13.779 2°55.667 0.5 44 -2.3 102780 46
2005-02-28 08:17:41 51°13.783 2°55.665 0.7 39 -2.3 102780 46
2005-02-28 08:17:47 51°13.789 2°55.663 0.7 37 -2.3 102780 46
2005-02-28 08:17:53 51°13.796 2°55.659 1 31 -2.3 102780 46
2005-02-28 08:17:57 51°13.801 2°55.656 1 31 -2.3 102780 46
2005-02-28 08:18:03 51°13.809 2°55.651 1.9 29 -2.3 102780 46
2005-02-28 08:18:07 51°13.815 2°55.648 1.9 29 -2.3 102780 46
2005-02-28 08:18:13 51°13.824 2°55.641 1.8 30 -2.3 102780 46
2005-02-28 08:18:17 51°13.832 2°55.636 1.7 30 -2.3 102780 46
2005-02-28 08:18:22 51°13.841 2°55.63 2.7 24 -2.3 102780 46
2005-02-28 08:18:28 51°13.852 2°55.622 2.3 23 -2.3 102780 47
2005-02-28 08:18:32 51°13.861 2°55.615 2.8 13 -2.3 102780 47
2005-02-28 08:18:37 51°13.871 2°55.608 2.7 12 -2.3 102780 47
2005-02-28 08:18:43 51°13.883 2°55.599 3 5 -2.3 102780 47
2005-02-28 08:18:47 51°13.892 2°55.592 3.4 7 -2.3 102780 46
2005-02-28 08:18:53 51°13.906 2°55.581 3.7 8 -2.3 102780 46
2005-02-28 08:18:57 51°13.917 2°55.574 3.8 4 -2.3 102780 47
2005-02-28 08:19:03 51°13.93 2°55.564 3.8 7 -2.3 102780 47
2005-02-28 08:19:08 51°13.942 2°55.554 3.8 9 -2.3 102780 47
2005-02-28 08:19:13 51°13.955 2°55.545 4 7 -2.3 102780 47
2005-02-28 08:19:17 51°13.966 2°55.537 4 10 -2.3 102770 47
2005-02-28 08:19:23 51°13.98 2°55.527 3.7 9 -2.3 102770 47
2005-02-28 08:19:27 51°13.991 2°55.519 3.7 8 -2.3 102780 48
2005-02-28 08:19:33 51°14.005 2°55.509 3.6 9 -2.3 102780 48
2005-02-28 08:19:37 51°14.016 2°55.501 3.7 9 -2.4 102780 46
2005-02-28 08:19:43 51°14.03 2°55.491 3.9 8 -2.4 102780 46
2005-02-28 08:19:47 51°14.042 2°55.482 3.7 9 -2.4 102780 45
2005-02-28 08:19:53 51°14.055 2°55.473 3.6 11 -2.4 102780 45
2005-02-28 08:19:57 51°14.067 2°55.464 3.7 4 -2.4 102780 45
2005-02-28 08:20:02 51°14.078 2°55.456 3.8 3 -2.4 102780 45
2005-02-28 08:20:07 51°14.091 2°55.446 3.7 1 -2.4 102780 45
2005-02-28 08:20:13 51°14.107 2°55.434 4.1 6 -2.4 102780 45
2005-02-28 08:20:18 51°14.12 2°55.423 3.9 3 -2.4 102780 45
2005-02-28 08:20:21 51°14.129 2°55.416 4 10 -2.4 102780 45
2005-02-28 08:20:27 51°14.143 2°55.404 3.9 11 -2.4 102780 46
2005-02-28 08:20:33 51°14.158 2°55.39 3.9 9 -2.4 102780 46
2005-02-28 08:20:37 51°14.169 2°55.379 3.8 10 -2.4 102780 46
2005-02-28 08:20:42 51°14.181 2°55.367 3 9 -2.4 102780 46
2005-02-28 08:20:47 51°14.193 2°55.354 3.2 9 -2.4 102780 46
2005-02-28 08:20:53 51°14.208 2°55.338 3.2 5 -2.4 102780 46
2005-02-28 08:20:57 51°14.218 2°55.324 3.4 4 -2.4 102780 46
2005-02-28 08:21:02 51°14.228 2°55.311 4.2 355 -2.4 102780 46
2005-02-28 08:21:07 51°14.24 2°55.293 4.4 353 -2.4 102780 45
2005-02-28 08:21:13 51°14.252 2°55.275 4.3 358 -2.4 102780 45
2005-02-28 08:21:17 51°14.261 2°55.259 4 359 -2.4 102780 45
2005-02-28 08:21:23 51°14.272 2°55.239 4.6 1 -2.4 102780 45
2005-02-28 08:21:27 51°14.281 2°55.223 4.3 356 -2.4 102780 45
2005-02-28 08:21:32 51°14.291 2°55.205 3.9 360 -2.4 102780 45
2005-02-28 08:21:37 51°14.3 2°55.188 4.2 357 -2.4 102780 46
2005-02-28 08:21:43 51°14.311 2°55.165 3.6 5 -2.4 102780 46
2005-02-28 08:21:47 51°14.32 2°55.148 3.8 5 -2.4 102780 46
2005-02-28 08:21:53 51°14.331 2°55.127 3.9 356 -2.4 102780 46
2005-02-28 08:21:57 51°14.34 2°55.109 4 357 -2.5 102780 46
2005-02-28 08:22:02 51°14.35 2°55.09 4.1 7 -2.5 102780 46
2005-02-28 08:22:07 51°14.359 2°55.072 4.3 7 -2.5 102770 46
2005-02-28 08:22:12 51°14.371 2°55.05 4.2 6 -2.5 102770 46
2005-02-28 08:22:17 51°14.381 2°55.029 4 6 -2.5 102770 47
2005-02-28 08:22:22 51°14.39 2°55.01 4.7 355 -2.5 102770 47
2005-02-28 08:22:27 51°14.399 2°54.985 4.5 355 -2.4 102770 48
2005-02-28 08:22:33 51°14.408 2°54.96 4.7 357 -2.4 102770 48
2005-02-28 08:22:37 51°14.414 2°54.938 4.4 355 -2.4 102770 48
2005-02-28 08:22:43 51°14.421 2°54.909 5 354 -2.4 102770 48
2005-02-28 08:22:47 51°14.425 2°54.888 4.8 354 -2.4 102770 48
2005-02-28 08:22:53 51°14.431 2°54.854 4.8 354 -2.4 102770 48
2005-02-28 08:22:57 51°14.434 2°54.833 4.5 355 -2.4 102770 46
2005-02-28 08:23:03 51°14.438 2°54.803 4.3 354 -2.4 102770 46
2005-02-28 08:23:07 51°14.44 2°54.778 4.6 351 -2.4 102770 46
2005-02-28 08:23:12 51°14.442 2°54.751 5.3 350 -2.4 102770 46
2005-02-28 08:23:17 51°14.444 2°54.726 5.4 352 -2.4 102760 47
2005-02-28 08:23:23 51°14.446 2°54.691 5.4 348 -2.4 102760 47
2005-02-28 08:23:27 51°14.448 2°54.665 5.2 351 -2.4 102760 47
2005-02-28 08:23:33 51°14.45 2°54.635 5.6 349 -2.4 102760 47
2005-02-28 08:23:37 51°14.451 2°54.609 6.4 347 -2.4 102770 48
2005-02-28 08:23:43 51°14.453 2°54.577 5.8 348 -2.4 102770 48
2005-02-28 08:23:48 51°14.453 2°54.548 5.6 350 -2.4 102760 48
2005-02-28 08:23:53 51°14.454 2°54.52 5.2 354 -2.4 102760 48
2005-02-28 08:23:57 51°14.454 2°54.494 5.3 355 -2.4 102760 48
2005-02-28 08:24:03 51°14.454 2°54.462 5.5 349 -2.4 102760 48
2005-02-28 08:24:07 51°14.453 2°54.439 6.1 348 -2.4 102760 48
2005-02-28 08:24:13 51°14.449 2°54.404 5.5 344 -2.4 102760 48
2005-02-28 08:24:17 51°14.446 2°54.378 5.7 345 -2.4 102780 47
2005-02-28 08:24:22 51°14.442 2°54.35 6 344 -2.4 102780 47
2005-02-28 08:24:27 51°14.438 2°54.321 6.3 350 -2.4 102770 46
2005-02-28 08:24:33 51°14.433 2°54.29 6.9 357 -2.4 102770 46
2005-02-28 08:24:37 51°14.428 2°54.265 6.6 356 -2.3 102760 45
2005-02-28 08:24:43 51°14.421 2°54.234 6.1 357 -2.3 102760 45
2005-02-28 08:24:47 51°14.415 2°54.213 6.4 354 -2.3 102760 46
2005-02-28 08:24:53 51°14.405 2°54.181 6.1 349 -2.3 102760 46
2005-02-28 08:24:57 51°14.397 2°54.158 6.5 350 -2.3 102760 45
2005-02-28 08:25:03 51°14.387 2°54.129 8.2 353 -2.3 102760 45
2005-02-28 08:25:07 51°14.379 2°54.109 8.6 352 -2.3 102760 44
2005-02-28 08:25:13 51°14.367 2°54.078 9.1 354 -2.3 102760 44
2005-02-28 08:25:17 51°14.358 2°54.055 9 355 -2.3 102760 44
2005-02-28 08:25:22 51°14.348 2°54.029 8.2 355 -2.3 102760 44
2005-02-28 08:25:27 51°14.338 2°54.003 8.4 356 -2.3 102760 46
2005-02-28 08:25:33 51°14.326 2°53.975 8.8 355 -2.3 102760 46
2005-02-28 08:25:38 51°14.317 2°53.948 8.4 357 -2.3 102750 48
2005-02-28 08:25:43 51°14.306 2°53.922 9.3 355 -2.3 102750 48
2005-02-28 08:25:47 51°14.299 2°53.901 8.9 354 -2.3 102750 48
2005-02-28 08:25:53 51°14.286 2°53.87 9 354 -2.3 102750 48
2005-02-28 08:25:58 51°14.276 2°53.843 8.5 352 -2.3 102750 47
2005-02-28 08:26:02 51°14.268 2°53.819 7.7 356 -2.3 102750 47
2005-02-28 08:26:07 51°14.259 2°53.795 8.7 352 -2.3 102750 47
2005-02-28 08:26:13 51°14.247 2°53.763 9.1 354 -2.3 102750 47
2005-02-28 08:26:17 51°14.239 2°53.738 9.1 356 -2.3 102750 47
2005-02-28 08:26:22 51°14.23 2°53.71 8.9 354 -2.3 102750 47
2005-02-28 08:26:27 51°14.222 2°53.685 8.8 355 -2.3 102750 48
2005-02-28 08:26:33 51°14.212 2°53.651 8.2 353 -2.3 102750 48
2005-02-28 08:26:37 51°14.204 2°53.626 8.2 350 -2.3 102750 49
2005-02-28 08:26:42 51°14.196 2°53.597 8.1 350 -2.3 102750 49
2005-02-28 08:26:47 51°14.19 2°53.571 8.5 352 -2.3 102750 47
2005-02-28 08:26:52 51°14.181 2°53.54 7.7 353 -2.3 102750 47
2005-02-28 08:26:57 51°14.173 2°53.511 7.5 354 -2.3 102750 47
2005-02-28 08:27:03 51°14.164 2°53.48 8.3 354 -2.3 102750 47
2005-02-28 08:27:07 51°14.157 2°53.457 7.8 350 -2.3 102750 46
2005-02-28 08:27:13 51°14.146 2°53.424 7.4 352 -2.3 102750 46
2005-02-28 08:27:18 51°14.136 2°53.397 7.6 353 -2.3 102750 46
2005-02-28 08:27:22 51°14.127 2°53.376 8.2 351 -2.3 102750 46
2005-02-28 08:27:27 51°14.116 2°53.349 8.6 353 -2.3 102750 46
2005-02-28 08:27:33 51°14.103 2°53.318 8.7 354 -2.3 102750 46
2005-02-28 08:27:37 51°14.093 2°53.295 7.9 352 -2.3 102750 45
2005-02-28 08:27:43 51°14.081 2°53.265 8.2 351 -2.3 102750 45
2005-02-28 08:27:47 51°14.072 2°53.243 7.9 352 -2.3 102750 45
2005-02-28 08:27:52 51°14.061 2°53.214 8.1 350 -2.3 102750 45
2005-02-28 08:27:57 51°14.051 2°53.189 8.6 350 -2.3 102750 46
2005-02-28 08:28:03 51°14.04 2°53.156 8.3 348 -2.3 102750 46
2005-02-28 08:28:07 51°14.031 2°53.13 8.1 349 -2.3 102750 46
2005-02-28 08:28:13 51°14.02 2°53.1 8.7 351 -2.3 102750 46
2005-02-28 08:28:17 51°14.011 2°53.075 8 348 -2.4 102750 47
2005-02-28 08:28:23 51°14 2°53.044 8.3 352 -2.4 102750 47
2005-02-28 08:28:27 51°13.991 2°53.018 8.4 352 -2.3 102750 47
2005-02-28 08:28:33 51°13.98 2°52.989 8.5 349 -2.3 102750 47
2005-02-28 08:28:37 51°13.971 2°52.963 7.7 352 -2.3 102750 47
2005-02-28 08:28:43 51°13.959 2°52.933 8.3 352 -2.3 102750 47
2005-02-28 08:28:48 51°13.948 2°52.905 8.1 350 -2.3 102750 47
2005-02-28 08:28:53 51°13.938 2°52.877 7.7 351 -2.3 102750 47
2005-02-28 08:28:57 51°13.929 2°52.853 7.9 347 -2.3 102750 47
2005-02-28 08:29:03 51°13.918 2°52.821 7.8 345 -2.3 102750 47
2005-02-28 08:29:07 51°13.91 2°52.798 7.3 349 -2.3 102750 47
2005-02-28 08:29:13 51°13.898 2°52.764 8.6 348 -2.3 102750 47
2005-02-28 08:29:17 51°13.89 2°52.737 8.7 350 -2.3 102740 46
2005-02-28 08:29:21 51°13.883 2°52.714 7.7 346 -2.3 102740 46
2005-02-28 08:29:27 51°13.872 2°52.683 7.7 351 -2.3 102740 45
2005-02-28 08:29:33 51°13.86 2°52.648 8.1 353 -2.3 102740 45
2005-02-28 08:29:37 51°13.852 2°52.622 7.6 354 -2.3 102750 47
2005-02-28 08:29:43 51°13.84 2°52.591 8.3 352 -2.3 102750 47
2005-02-28 08:29:47 51°13.83 2°52.566 8.4 350 -2.3 102750 47
2005-02-28 08:29:53 51°13.819 2°52.535 8 353 -2.3 102750 47
2005-02-28 08:29:57 51°13.81 2°52.51 8 350 -2.3 102740 47
2005-02-28 08:30:01 51°13.801 2°52.488 7.6 355 -2.3 102740 47
2005-02-28 08:30:07 51°13.788 2°52.454 8.1 357 -2.3 102750 47
2005-02-28 08:30:13 51°13.776 2°52.424 8.4 352 -2.3 102750 47
2005-02-28 08:30:17 51°13.768 2°52.398 8.3 353 -2.3 102740 47
2005-02-28 08:30:23 51°13.757 2°52.367 7.3 353 -2.3 102740 47
2005-02-28 08:30:27 51°13.748 2°52.341 7.3 352 -2.3 102750 47
2005-02-28 08:30:32 51°13.738 2°52.312 7.5 353 -2.3 102750 47
2005-02-28 08:30:37 51°13.728 2°52.283 7.6 352 -2.3 102750 47
2005-02-28 08:30:43 51°13.718 2°52.251 7.5 351 -2.3 102750 47
2005-02-28 08:30:47 51°13.709 2°52.225 7.6 355 -2.3 102750 47
2005-02-28 08:30:53 51°13.698 2°52.194 7.8 354 -2.3 102750 47
2005-02-28 08:30:57 51°13.689 2°52.168 8.1 351 -2.3 102750 47
2005-02-28 08:31:02 51°13.681 2°52.144 7.6 356 -2.3 102750 47
2005-02-28 08:31:07 51°13.67 2°52.114 7.7 355 -2.3 102750 47
2005-02-28 08:31:13 51°13.658 2°52.079 8.2 356 -2.3 102750 47
2005-02-28 08:31:17 51°13.648 2°52.055 7.9 356 -2.3 102750 48
2005-02-28 08:31:21 51°13.64 2°52.032 8.6 358 -2.3 102750 48
2005-02-28 08:31:28 51°13.627 2°51.998 8.3 354 -2.3 102750 46
2005-02-28 08:31:33 51°13.616 2°51.968 8 356 -2.3 102750 46
2005-02-28 08:31:37 51°13.606 2°51.942 8.3 357 -2.3 102750 47
2005-02-28 08:31:43 51°13.595 2°51.911 8.3 350 -2.3 102750 47
2005-02-28 08:31:47 51°13.587 2°51.888 8.2 351 -2.3 102750 49
2005-02-28 08:31:53 51°13.575 2°51.854 7.8 354 -2.3 102750 49
2005-02-28 08:31:57 51°13.566 2°51.828 7.9 350 -2.3 102750 48
2005-02-28 08:32:03 51°13.555 2°51.797 8.2 353 -2.3 102750 48
2005-02-28 08:32:07 51°13.548 2°51.773 7.8 355 -2.3 102750 49
2005-02-28 08:32:13 51°13.537 2°51.738 8 355 -2.3 102750 49
2005-02-28 08:32:17 51°13.528 2°51.713 8.1 351 -2.3 102750 48
2005-02-28 08:32:23 51°13.516 2°51.682 7.6 355 -2.3 102750 48
2005-02-28 08:32:27 51°13.509 2°51.658 8.5 355 -2.3 102750 48
2005-02-28 08:32:32 51°13.497 2°51.627 7.8 357 -2.3 102750 48
2005-02-28 08:32:37 51°13.487 2°51.599 8.3 354 -2.3 102750 49
2005-02-28 08:32:43 51°13.476 2°51.568 8.3 350 -2.3 102750 49
2005-02-28 08:32:47 51°13.467 2°51.545 7.9 349 -2.3 102750 49
2005-02-28 08:32:53 51°13.454 2°51.511 7.7 347 -2.3 102750 49
2005-02-28 08:32:57 51°13.446 2°51.485 8 349 -2.3 102750 49
2005-02-28 08:33:03 51°13.434 2°51.453 7.6 350 -2.3 102750 49
2005-02-28 08:33:07 51°13.426 2°51.429 7.7 349 -2.3 102750 49
2005-02-28 08:33:13 51°13.414 2°51.395 8.2 345 -2.3 102750 49
2005-02-28 08:33:17 51°13.405 2°51.369 7.8 346 -2.3 102750 48
2005-02-28 08:33:23 51°13.394 2°51.337 8.5 348 -2.3 102750 48
2005-02-28 08:33:27 51°13.386 2°51.314 8.6 350 -2.3 102750 48
2005-02-28 08:33:33 51°13.374 2°51.279 8.5 349 -2.3 102750 48
2005-02-28 08:33:37 51°13.365 2°51.253 8.5 352 -2.3 102750 49
2005-02-28 08:33:43 51°13.354 2°51.221 8.3 349 -2.3 102750 49
2005-02-28 08:33:47 51°13.345 2°51.198 9 347 -2.3 102750 50
2005-02-28 08:33:53 51°13.333 2°51.163 8.6 348 -2.3 102750 50
2005-02-28 08:33:57 51°13.324 2°51.138 8.3 347 -2.3 102740 50
2005-02-28 08:34:03 51°13.313 2°51.105 8.4 347 -2.3 102740 50
2005-02-28 08:34:07 51°13.304 2°51.082 8.2 346 -2.3 102740 50
2005-02-28 08:34:13 51°13.293 2°51.047 8.3 350 -2.3 102740 50
2005-02-28 08:34:17 51°13.283 2°51.021 7.7 347 -2.3 102740 50
2005-02-28 08:34:23 51°13.272 2°50.988 8.1 346 -2.3 102740 50
2005-02-28 08:34:27 51°13.264 2°50.965 8.2 350 -2.3 102740 49
2005-02-28 08:34:33 51°13.252 2°50.929 8.9 351 -2.3 102740 49
2005-02-28 08:34:37 51°13.244 2°50.903 8.6 351 -2.3 102750 49
2005-02-28 08:34:43 51°13.232 2°50.871 8.6 346 -2.3 102750 49
2005-02-28 08:34:47 51°13.224 2°50.847 8.4 351 -2.3 102750 49
2005-02-28 08:34:52 51°13.213 2°50.815 8.7 354 -2.3 102750 49
2005-02-28 08:34:57 51°13.203 2°50.786 8.4 350 -2.3 102740 50
2005-02-28 08:35:01 51°13.195 2°50.762 8.6 350 -2.3 102740 50
2005-02-28 08:35:08 51°13.182 2°50.727 9.1 349 -2.3 102750 51
2005-02-28 08:35:12 51°13.172 2°50.698 8.5 349 -2.3 102750 51
2005-02-28 08:35:17 51°13.162 2°50.669 8.3 348 -2.3 102750 52
2005-02-28 08:35:23 51°13.151 2°50.636 8.1 351 -2.3 102750 52
2005-02-28 08:35:28 51°13.142 2°50.61 8.4 350 -2.3 102750 51
2005-02-28 08:35:32 51°13.132 2°50.581 8.5 351 -2.3 102750 51
2005-02-28 08:35:37 51°13.122 2°50.552 8.5 352 -2.3 102750 51
2005-02-28 08:35:43 51°13.111 2°50.519 8.4 353 -2.3 102750 51
2005-02-28 08:35:47 51°13.103 2°50.496 8.3 348 -2.3 102750 51
2005-02-28 08:35:53 51°13.091 2°50.461 8.2 355 -2.3 102750 51
2005-02-28 08:35:57 51°13.082 2°50.435 8.6 351 -2.3 102750 51
2005-02-28 08:36:01 51°13.074 2°50.412 8.3 352 -2.3 102750 51
2005-02-28 08:36:08 51°13.062 2°50.377 8.7 351 -2.3 102750 51
2005-02-28 08:36:13 51°13.051 2°50.345 8.4 349 -2.3 102750 51
2005-02-28 08:36:17 51°13.042 2°50.319 8 352 -2.3 102750 51
2005-02-28 08:36:23 51°13.031 2°50.287 8 352 -2.3 102750 51
2005-02-28 08:36:27 51°13.023 2°50.264 8 353 -2.3 102750 52
2005-02-28 08:36:33 51°13.011 2°50.229 7.8 350 -2.3 102750 52
2005-02-28 08:36:37 51°13.002 2°50.203 8.1 349 -2.3 102750 51
2005-02-28 08:36:42 51°12.993 2°50.177 7.9 354 -2.3 102750 51
2005-02-28 08:36:47 51°12.984 2°50.148 7.7 356 -2.3 102750 50
2005-02-28 08:36:53 51°12.972 2°50.113 8.7 352 -2.3 102750 50
2005-02-28 08:36:57 51°12.963 2°50.087 9.3 348 -2.4 102750 49
2005-02-28 08:37:03 51°12.953 2°50.054 8.5 354 -2.4 102750 49
2005-02-28 08:37:07 51°12.945 2°50.031 8.5 349 -2.3 102750 49
2005-02-28 08:37:13 51°12.933 2°49.996 8.5 355 -2.3 102750 49
2005-02-28 08:37:17 51°12.924 2°49.97 8.8 351 -2.3 102750 51
2005-02-28 08:37:21 51°12.917 2°49.947 8.1 352 -2.3 102750 51
2005-02-28 08:37:28 51°12.904 2°49.912 8.8 353 -2.3 102750 52
2005-02-28 08:37:33 51°12.893 2°49.881 8.4 354 -2.3 102750 52
2005-02-28 08:37:37 51°12.884 2°49.855 8.6 353 -2.3 102750 51
2005-02-28 08:37:43 51°12.873 2°49.823 8.9 353 -2.3 102750 51
2005-02-28 08:37:47 51°12.864 2°49.801 8.6 352 -2.3 102750 50
2005-02-28 08:37:53 51°12.852 2°49.767 8.3 354 -2.3 102750 50
2005-02-28 08:37:57 51°12.843 2°49.741 8.2 351 -2.3 102750 48
2005-02-28 08:38:02 51°12.834 2°49.715 8.2 349 -2.3 102750 48
2005-02-28 08:38:08 51°12.823 2°49.683 9 352 -2.3 102750 49
2005-02-28 08:38:13 51°12.811 2°49.652 8.6 352 -2.3 102750 49
2005-02-28 08:38:17 51°12.803 2°49.626 8.2 351 -2.4 102750 49
2005-02-28 08:38:21 51°12.795 2°49.604 8.6 351 -2.4 102750 49
2005-02-28 08:38:27 51°12.784 2°49.572 7.8 356 -2.3 102760 49
2005-02-28 08:38:33 51°12.771 2°49.538 7.9 353 -2.3 102760 49
2005-02-28 08:38:37 51°12.762 2°49.512 7.8 1 -2.3 102760 50
2005-02-28 08:38:43 51°12.751 2°49.481 7.6 354 -2.3 102760 50
2005-02-28 08:38:48 51°12.741 2°49.455 8.3 356 -2.3 102750 49
2005-02-28 08:38:52 51°12.731 2°49.427 8.1 358 -2.3 102750 49
2005-02-28 08:38:57 51°12.721 2°49.399 8.2 357 -2.3 102760 48
2005-02-28 08:39:03 51°12.71 2°49.367 8.7 355 -2.3 102760 48
2005-02-28 08:39:07 51°12.702 2°49.344 8.6 355 -2.3 102760 49
2005-02-28 08:39:12 51°12.691 2°49.312 7.5 351 -2.3 102760 49
2005-02-28 08:39:17 51°12.681 2°49.283 7.8 350 -2.3 102760 48
2005-02-28 08:39:23 51°12.67 2°49.251 7.4 351 -2.3 102760 48
2005-02-28 08:39:28 51°12.661 2°49.225 7.7 348 -2.3 102760 47
2005-02-28 08:39:33 51°12.65 2°49.195 8.4 355 -2.3 102760 47
2005-02-28 08:39:37 51°12.64 2°49.169 8.2 354 -2.3 102750 48
2005-02-28 08:39:43 51°12.629 2°49.138 8.3 356 -2.3 102750 48
2005-02-28 08:39:48 51°12.619 2°49.112 7.8 352 -2.3 102750 47
2005-02-28 08:39:52 51°12.608 2°49.085 7.7 359 -2.3 102750 47
2005-02-28 08:39:57 51°12.597 2°49.057 8.2 355 -2.3 102750 48
2005-02-28 08:40:03 51°12.586 2°49.026 7.7 358 -2.3 102750 48
2005-02-28 08:40:07 51°12.577 2°49.003 7.3 357 -2.3 102750 47
2005-02-28 08:40:13 51°12.565 2°48.969 7.7 354 -2.3 102750 47
2005-02-28 08:40:17 51°12.555 2°48.944 7.7 350 -2.3 102750 47
2005-02-28 08:40:21 51°12.547 2°48.921 7 359 -2.3 102750 47
2005-02-28 08:40:27 51°12.535 2°48.89 7.2 356 -2.3 102750 47
2005-02-28 08:40:33 51°12.522 2°48.856 8 353 -2.3 102750 47
2005-02-28 08:40:37 51°12.513 2°48.831 7.7 355 -2.3 102750 47
2005-02-28 08:40:42 51°12.502 2°48.803 8.3 359 -2.3 102750 47
2005-02-28 08:40:47 51°12.492 2°48.777 7.7 357 -2.3 102750 46
2005-02-28 08:40:53 51°12.479 2°48.744 8 357 -2.3 102750 46
2005-02-28 08:40:57 51°12.47 2°48.718 7.1 351 -2.3 102750 46
2005-02-28 08:41:01 51°12.461 2°48.696 7.1 355 -2.3 102750 46
2005-02-28 08:41:08 51°12.449 2°48.661 7.6 353 -2.3 102750 46
2005-02-28 08:41:12 51°12.438 2°48.633 7.9 350 -2.3 102750 46
2005-02-28 08:41:17 51°12.428 2°48.604 7.7 352 -2.3 102750 45
2005-02-28 08:41:23 51°12.416 2°48.573 7.2 355 -2.3 102750 45
2005-02-28 08:41:27 51°12.407 2°48.55 7.7 354 -2.3 102750 45
2005-02-28 08:41:32 51°12.395 2°48.519 8.2 350 -2.3 102750 45
2005-02-28 08:41:37 51°12.384 2°48.491 7.8 353 -2.3 102750 47
2005-02-28 08:41:43 51°12.373 2°48.459 7.6 354 -2.3 102750 47
2005-02-28 08:41:48 51°12.363 2°48.434 8 352 -2.3 102750 47
2005-02-28 08:41:53 51°12.351 2°48.403 6.9 356 -2.3 102750 47
2005-02-28 08:41:57 51°12.342 2°48.38 7.3 357 -2.3 102750 46
2005-02-28 08:42:03 51°12.329 2°48.346 8 347 -2.3 102750 46
2005-02-28 08:42:07 51°12.321 2°48.324 7.8 347 -2.3 102750 46
2005-02-28 08:42:12 51°12.309 2°48.293 7.6 350 -2.3 102750 46
2005-02-28 08:42:17 51°12.299 2°48.264 7.3 349 -2.3 102750 45
2005-02-28 08:42:23 51°12.287 2°48.233 7 348 -2.3 102750 45
2005-02-28 08:42:28 51°12.278 2°48.207 8.4 352 -2.3 102760 46
2005-02-28 08:42:32 51°12.267 2°48.179 7.1 358 -2.3 102760 46
2005-02-28 08:42:37 51°12.258 2°48.149 7.8 358 -2.3 102750 46
2005-02-28 08:42:42 51°12.25 2°48.122 7.7 356 -2.3 102750 46
2005-02-28 08:42:47 51°12.242 2°48.092 7.2 358 -2.3 102750 46
2005-02-28 08:42:53 51°12.233 2°48.056 7.9 352 -2.3 102750 46
2005-02-28 08:42:57 51°12.226 2°48.028 7.3 352 -2.3 102750 47
2005-02-28 08:43:03 51°12.218 2°47.995 7.4 357 -2.3 102750 47
2005-02-28 08:43:08 51°12.211 2°47.967 7.3 351 -2.3 102750 45
2005-02-28 08:43:13 51°12.203 2°47.934 7.3 349 -2.3 102750 45
2005-02-28 08:43:17 51°12.197 2°47.906 7.6 348 -2.2 102750 45
2005-02-28 08:43:21 51°12.191 2°47.881 7.3 352 -2.2 102750 45
2005-02-28 08:43:28 51°12.182 2°47.844 7.3 350 -2.2 102750 45
2005-02-28 08:43:33 51°12.174 2°47.811 6.9 351 -2.2 102750 45
2005-02-28 08:43:37 51°12.167 2°47.783 7.7 356 -2.2 102750 45
2005-02-28 08:43:43 51°12.159 2°47.749 7.6 354 -2.2 102750 45
2005-02-28 08:43:48 51°12.152 2°47.721 7.9 352 -2.2 102760 45
2005-02-28 08:43:52 51°12.144 2°47.691 7.2 353 -2.2 102760 45
2005-02-28 08:43:57 51°12.137 2°47.66 7.1 352 -2.2 102760 45
2005-02-28 08:44:01 51°12.131 2°47.636 7.2 357 -2.2 102760 45
2005-02-28 08:44:08 51°12.121 2°47.598 7.5 358 -2.2 102750 44
2005-02-28 08:44:13 51°12.114 2°47.564 7.3 2 -2.2 102750 44
2005-02-28 08:44:17 51°12.107 2°47.537 7 357 -2.2 102760 44
2005-02-28 08:44:23 51°12.098 2°47.503 7.4 350 -2.2 102760 44
2005-02-28 08:44:27 51°12.092 2°47.478 7.4 354 -2.2 102760 44
2005-02-28 08:44:33 51°12.083 2°47.442 7.3 345 -2.2 102760 44
2005-02-28 08:44:37 51°12.076 2°47.414 8.2 354 -2.2 102760 45
2005-02-28 08:44:42 51°12.069 2°47.386 7.8 354 -2.2 102760 45
2005-02-28 08:44:47 51°12.062 2°47.355 8.5 356 -2.2 102760 45
2005-02-28 08:44:53 51°12.053 2°47.318 8.9 353 -2.2 102760 45
2005-02-28 08:44:57 51°12.046 2°47.29 8.5 356 -2.2 102760 46
2005-02-28 08:45:02 51°12.038 2°47.26 8.6 357 -2.2 102760 46
2005-02-28 08:45:07 51°12.032 2°47.231 8.9 357 -2.2 102760 46
2005-02-28 08:45:13 51°12.023 2°47.195 9.2 352 -2.2 102760 46
2005-02-28 08:45:17 51°12.016 2°47.167 8.2 356 -2.2 102760 49
2005-02-28 08:45:21 51°12.01 2°47.142 7.8 357 -2.2 102760 49
2005-02-28 08:45:28 51°12 2°47.105 8.3 350 -2.1 102750 50
2005-02-28 08:45:33 51°11.993 2°47.071 9.4 357 -2.1 102750 50
2005-02-28 08:45:37 51°11.985 2°47.043 9 352 -2.2 102750 49
2005-02-28 08:45:42 51°11.979 2°47.015 8.8 351 -2.2 102750 49
2005-02-28 08:45:47 51°11.971 2°46.986 8.8 349 -2.2 102750 48
2005-02-28 08:45:53 51°11.962 2°46.948 9.4 351 -2.2 102750 48
2005-02-28 08:45:57 51°11.955 2°46.921 9.4 356 -2.1 102750 49
2005-02-28 08:46:01 51°11.949 2°46.896 9.3 350 -2.1 102750 49
2005-02-28 08:46:07 51°11.941 2°46.862 9.5 358 -2.1 102750 50
2005-02-28 08:46:12 51°11.932 2°46.828 8.9 358 -2.1 102750 50
2005-02-28 08:46:17 51°11.924 2°46.798 9.7 358 -2.2 102750 50
2005-02-28 08:46:23 51°11.916 2°46.764 9.3 352 -2.2 102750 50
2005-02-28 08:46:28 51°11.909 2°46.735 9.8 356 -2.2 102750 50
2005-02-28 08:46:32 51°11.901 2°46.706 9.2 357 -2.2 102750 50
2005-02-28 08:46:37 51°11.893 2°46.675 9.7 355 -2.2 102750 49
2005-02-28 08:46:43 51°11.885 2°46.641 8.7 354 -2.2 102750 49
2005-02-28 08:46:47 51°11.879 2°46.616 8.9 354 -2.2 102750 47
2005-02-28 08:46:53 51°11.87 2°46.578 8.8 355 -2.2 102750 47
2005-02-28 08:46:57 51°11.862 2°46.551 8.5 355 -2.2 102750 48
2005-02-28 08:47:02 51°11.856 2°46.523 8.5 353 -2.2 102750 48
2005-02-28 08:47:08 51°11.847 2°46.488 8.2 354 -2.2 102750 47
2005-02-28 08:47:13 51°11.839 2°46.455 8.5 352 -2.2 102750 47
2005-02-28 08:47:17 51°11.832 2°46.427 8.3 352 -2.2 102750 47
2005-02-28 08:47:23 51°11.824 2°46.393 8.1 355 -2.2 102750 47
2005-02-28 08:47:27 51°11.818 2°46.368 8.2 351 -2.2 102750 46
2005-02-28 08:47:33 51°11.809 2°46.33 8.6 355 -2.2 102750 46
2005-02-28 08:47:37 51°11.802 2°46.302 7.7 353 -2.2 102750 46
2005-02-28 08:47:42 51°11.795 2°46.274 8 355 -2.2 102750 46
2005-02-28 08:47:48 51°11.787 2°46.239 8.2 355 -2.2 102750 47
2005-02-28 08:47:53 51°11.779 2°46.206 7.9 354 -2.2 102750 47
2005-02-28 08:47:57 51°11.771 2°46.178 8.3 348 -2.2 102760 47
2005-02-28 08:48:03 51°11.763 2°46.143 7.3 353 -2.2 102760 47
2005-02-28 08:48:08 51°11.756 2°46.116 7.7 353 -2.2 102750 46
2005-02-28 08:48:13 51°11.748 2°46.082 8.3 350 -2.2 102750 46
2005-02-28 08:48:18 51°11.739 2°46.051 8.5 351 -2.2 102750 46
2005-02-28 08:48:22 51°11.733 2°46.026 7.5 351 -2.2 102750 46
2005-02-28 08:48:27 51°11.725 2°45.996 7.8 351 -2.2 102750 46
2005-02-28 08:48:33 51°11.716 2°45.958 8 353 -2.2 102750 46
2005-02-28 08:48:37 51°11.709 2°45.93 7.9 349 -2.2 102750 47
2005-02-28 08:48:42 51°11.703 2°45.902 7.3 350 -2.2 102750 47
2005-02-28 08:48:47 51°11.694 2°45.872 7.5 353 -2.2 102750 46
2005-02-28 08:48:53 51°11.686 2°45.834 8.2 352 -2.2 102750 46
2005-02-28 08:48:57 51°11.678 2°45.806 8.1 353 -2.2 102750 46
2005-02-28 08:49:03 51°11.67 2°45.771 7.5 351 -2.2 102750 46
2005-02-28 08:49:07 51°11.664 2°45.746 8 351 -2.2 102750 46
2005-02-28 08:49:13 51°11.655 2°45.709 7.9 356 -2.2 102750 46
2005-02-28 08:49:17 51°11.648 2°45.681 7.7 356 -2.1 102750 46
2005-02-28 08:49:21 51°11.641 2°45.656 7.8 355 -2.1 102750 46
2005-02-28 08:49:28 51°11.632 2°45.618 7.8 353 -2.1 102750 46
2005-02-28 08:49:33 51°11.624 2°45.585 7.9 350 -2.1 102750 46
2005-02-28 08:49:37 51°11.617 2°45.557 7.3 354 -2.1 102750 46
2005-02-28 08:49:41 51°11.61 2°45.532 7.9 355 -2.1 102750 46
2005-02-28 08:49:48 51°11.601 2°45.494 8.2 355 -2.1 102750 46
2005-02-28 08:49:52 51°11.593 2°45.464 7 356 -2.1 102750 46
2005-02-28 08:49:57 51°11.585 2°45.433 7.4 357 -2.1 102750 46
2005-02-28 08:50:02 51°11.578 2°45.405 7.3 356 -2.1 102750 46
2005-02-28 08:50:07 51°11.569 2°45.374 8.2 355 -2.1 102750 46
2005-02-28 08:50:13 51°11.56 2°45.337 6.9 354 -2.1 102750 46
2005-02-28 08:50:17 51°11.553 2°45.31 7.8 354 -2.1 102750 46
2005-02-28 08:50:21 51°11.546 2°45.285 8.4 358 -2.1 102750 46
2005-02-28 08:50:27 51°11.537 2°45.251 7.8 357 -2.1 102750 46
2005-02-28 08:50:32 51°11.528 2°45.218 7.7 355 -2.1 102750 46
2005-02-28 08:50:37 51°11.52 2°45.187 8.5 356 -2.1 102750 45
2005-02-28 08:50:43 51°11.511 2°45.153 7.8 354 -2.1 102750 45
2005-02-28 08:50:47 51°11.505 2°45.129 8.2 358 -2.1 102760 44
2005-02-28 08:50:53 51°11.495 2°45.092 7.8 356 -2.1 102760 44
2005-02-28 08:50:57 51°11.489 2°45.064 8 354 -2.1 102760 45
2005-02-28 08:51:02 51°11.481 2°45.037 7.9 356 -2.1 102760 45
2005-02-28 08:51:07 51°11.474 2°45.006 8.1 356 -2.1 102750 47
2005-02-28 08:51:13 51°11.464 2°44.97 7.7 354 -2.1 102750 47
2005-02-28 08:51:17 51°11.457 2°44.942 7.4 348 -2.1 102750 47
2005-02-28 08:51:21 51°11.451 2°44.918 7.6 347 -2.1 102750 47
2005-02-28 08:51:27 51°11.442 2°44.884 8 352 -2.1 102760 46
2005-02-28 08:51:33 51°11.433 2°44.847 7.4 348 -2.1 102760 46
2005-02-28 08:51:37 51°11.426 2°44.82 8.4 349 -2.1 102750 45
2005-02-28 08:51:42 51°11.419 2°44.792 8.1 350 -2.1 102750 45
2005-02-28 08:51:48 51°11.411 2°44.757 7 352 -2.1 102750 45
2005-02-28 08:51:53 51°11.403 2°44.724 7.2 347 -2.1 102750 45
2005-02-28 08:51:58 51°11.395 2°44.693 7.1 349 -2.1 102750 45
2005-02-28 08:52:03 51°11.387 2°44.663 8.1 352 -2.1 102750 45
2005-02-28 08:52:07 51°11.381 2°44.638 7.9 355 -2.1 102750 45
2005-02-28 08:52:13 51°11.372 2°44.602 7.2 357 -2.1 102750 45
2005-02-28 08:52:17 51°11.365 2°44.575 7.5 354 -2.1 102750 45
2005-02-28 08:52:23 51°11.355 2°44.542 7 353 -2.1 102750 45
2005-02-28 08:52:27 51°11.349 2°44.517 7 359 -2.1 102750 45
2005-02-28 08:52:33 51°11.34 2°44.481 7.8 354 -2.1 102750 45
2005-02-28 08:52:37 51°11.333 2°44.454 6.8 355 -2.1 102760 45
2005-02-28 08:52:43 51°11.324 2°44.42 7.3 347 -2.1 102760 45
2005-02-28 08:52:48 51°11.317 2°44.393 6.9 353 -2.1 102750 45
2005-02-28 08:52:52 51°11.31 2°44.363 7.1 351 -2.1 102750 45
2005-02-28 08:52:57 51°11.302 2°44.333 7.4 354 -2 102760 46
2005-02-28 08:53:03 51°11.293 2°44.299 7.4 358 -2 102760 46
2005-02-28 08:53:07 51°11.288 2°44.274 7.7 358 -2 102760 47
2005-02-28 08:53:12 51°11.279 2°44.241 7.1 354 -2 102760 47
2005-02-28 08:53:17 51°11.271 2°44.211 7 357 -2 102750 47
2005-02-28 08:53:23 51°11.264 2°44.177 7.1 353 -2 102750 47
2005-02-28 08:53:27 51°11.257 2°44.153 7.1 358 -2 102750 48
2005-02-28 08:53:32 51°11.249 2°44.119 7.3 355 -2 102750 48
2005-02-28 08:53:37 51°11.241 2°44.088 7.2 354 -2 102750 47
2005-02-28 08:53:42 51°11.233 2°44.058 6.9 354 -2 102750 47
2005-02-28 08:53:47 51°11.227 2°44.03 6.5 354 -2 102750 46
2005-02-28 08:53:53 51°11.217 2°43.994 6.4 358 -2 102750 46
2005-02-28 08:53:57 51°11.21 2°43.967 6.7 354 -2 102750 46
2005-02-28 08:54:02 51°11.203 2°43.939 7.6 356 -2 102750 46
2005-02-28 08:54:08 51°11.194 2°43.902 7.4 352 -2 102750 44
2005-02-28 08:54:12 51°11.187 2°43.875 7.5 354 -2 102750 44
2005-02-28 08:54:17 51°11.179 2°43.845 7.3 357 -2 102750 44
2005-02-28 08:54:23 51°11.17 2°43.811 7.1 357 -2 102750 44
2005-02-28 08:54:28 51°11.163 2°43.783 7.6 356 -2 102750 46
2005-02-28 08:54:33 51°11.155 2°43.749 7 354 -2 102750 46
2005-02-28 08:54:37 51°11.148 2°43.722 6.7 349 -2 102760 45
2005-02-28 08:54:43 51°11.139 2°43.688 6.8 352 -2 102760 45
2005-02-28 08:54:47 51°11.133 2°43.664 7.3 355 -2 102760 45
2005-02-28 08:54:53 51°11.123 2°43.628 7.6 357 -2 102760 45
2005-02-28 08:54:57 51°11.116 2°43.6 8 357 -2 102760 45
2005-02-28 08:55:03 51°11.107 2°43.565 8.1 1 -2 102760 45
2005-02-28 08:55:07 51°11.101 2°43.541 8 359 -2 102750 44
2005-02-28 08:55:13 51°11.092 2°43.504 7.6 357 -2 102750 44
2005-02-28 08:55:17 51°11.085 2°43.477 7.3 359 -2 102760 45
2005-02-28 08:55:23 51°11.076 2°43.442 7.2 4 -2 102760 45
2005-02-28 08:55:27 51°11.07 2°43.418 7.4 -999 -2 102760 45
2005-02-28 08:55:33 51°11.061 2°43.38 6.7 357 -2 102760 45
2005-02-28 08:55:37 51°11.054 2°43.353 7.3 359 -2 102760 44
2005-02-28 08:55:43 51°11.045 2°43.319 7.6 355 -2 102760 44
2005-02-28 08:55:47 51°11.039 2°43.294 7.4 354 -2 102760 43
2005-02-28 08:55:53 51°11.03 2°43.257 7.4 -999 -2 102760 43
2005-02-28 08:55:57 51°11.023 2°43.229 7.5 358 -2 102750 44
2005-02-28 08:56:02 51°11.015 2°43.198 8.1 1 -2 102750 44
2005-02-28 08:56:07 51°11.009 2°43.17 7.8 5 -2 102760 44
2005-02-28 08:56:12 51°10.999 2°43.136 8.2 3 -2 102760 44
2005-02-28 08:56:17 51°10.993 2°43.104 8.2 7 -2 102750 45
2005-02-28 08:56:22 51°10.984 2°43.073 7.6 360 -2 102750 45
2005-02-28 08:56:27 51°10.978 2°43.045 6.9 358 -2 102750 44
2005-02-28 08:56:33 51°10.969 2°43.008 7.1 1 -2 102750 44
2005-02-28 08:56:37 51°10.962 2°42.981 7.5 360 -2 102760 44
2005-02-28 08:56:43 51°10.953 2°42.947 8.3 360 -2 102760 44
2005-02-28 08:56:48 51°10.946 2°42.918 7.8 1 -2 102750 44
2005-02-28 08:56:53 51°10.938 2°42.884 8.1 359 -2 102750 44
2005-02-28 08:56:57 51°10.931 2°42.856 8.3 357 -2 102750 44
2005-02-28 08:57:01 51°10.924 2°42.832 8.3 4 -2 102750 44
2005-02-28 08:57:08 51°10.915 2°42.795 7.7 356 -2 102750 45
2005-02-28 08:57:13 51°10.907 2°42.762 8.1 358 -2 102750 45
2005-02-28 08:57:17 51°10.899 2°42.734 7.5 357 -2 102750 45
2005-02-28 08:57:23 51°10.891 2°42.7 7.6 354 -2 102750 45
2005-02-28 08:57:27 51°10.885 2°42.675 7.1 355 -2 102760 44
2005-02-28 08:57:33 51°10.876 2°42.639 7.2 354 -2 102760 44
2005-02-28 08:57:37 51°10.869 2°42.612 7.7 354 -2 102750 44
2005-02-28 08:57:43 51°10.861 2°42.578 8.2 352 -2 102750 44
2005-02-28 08:57:48 51°10.854 2°42.55 8.2 356 -2 102760 44
2005-02-28 08:57:53 51°10.845 2°42.517 8 357 -2 102760 44
2005-02-28 08:57:57 51°10.839 2°42.493 7.4 359 -2 102760 45
2005-02-28 08:58:03 51°10.83 2°42.457 7.8 358 -2 102760 45
2005-02-28 08:58:08 51°10.823 2°42.429 8.2 -999 -2 102760 46
2005-02-28 08:58:13 51°10.815 2°42.396 8.4 357 -2 102760 46
2005-02-28 08:58:17 51°10.808 2°42.369 8.1 359 -2 102750 44
2005-02-28 08:58:23 51°10.8 2°42.335 7.9 355 -2 102750 44
2005-02-28 08:58:27 51°10.794 2°42.311 7.8 356 -2 102760 45
2005-02-28 08:58:33 51°10.785 2°42.275 7.7 358 -2 102760 45
2005-02-28 08:58:37 51°10.778 2°42.248 7 360 -2 102750 44
2005-02-28 08:58:43 51°10.771 2°42.214 6.7 359 -2 102750 44
2005-02-28 08:58:47 51°10.767 2°42.188 7.9 355 -2 102760 44
2005-02-28 08:58:53 51°10.761 2°42.15 7.8 357 -2 102760 44
2005-02-28 08:58:57 51°10.758 2°42.122 7.7 357 -2 102760 44
2005-02-28 08:59:02 51°10.754 2°42.093 7.5 354 -2 102760 44
2005-02-28 08:59:07 51°10.751 2°42.06 7.7 351 -2 102760 43
2005-02-28 08:59:13 51°10.748 2°42.021 7.1 357 -2 102760 43
2005-02-28 08:59:17 51°10.745 2°41.992 7 348 -2 102760 45
2005-02-28 08:59:23 51°10.741 2°41.957 6.8 352 -2 102760 45
2005-02-28 08:59:27 51°10.738 2°41.931 7.2 353 -2 102750 45
2005-02-28 08:59:33 51°10.734 2°41.891 7.8 352 -2 102750 45
2005-02-28 08:59:38 51°10.731 2°41.859 7.2 352 -2 102750 45
2005-02-28 08:59:43 51°10.728 2°41.826 7.6 358 -2 102750 45
2005-02-28 08:59:47 51°10.725 2°41.8 7 355 -2 102750 45
2005-02-28 08:59:52 51°10.722 2°41.764 7.5 1 -2 102750 45
2005-02-28 08:59:58 51°10.718 2°41.728 7.1 5 -2 102750 46
2005-02-28 09:00:01 51°10.716 2°41.705 7.4 358 -2 102750 46
2005-02-28 09:00:08 51°10.711 2°41.665 6.7 3 -2 102750 46
2005-02-28 09:00:12 51°10.708 2°41.633 6.6 357 -2 102750 46
2005-02-28 09:00:18 51°10.705 2°41.596 7.5 359 -2 102760 46
2005-02-28 09:00:23 51°10.701 2°41.564 7.3 358 -2 102760 46
2005-02-28 09:00:27 51°10.698 2°41.538 6.9 357 -2 102750 46
2005-02-28 09:00:33 51°10.693 2°41.499 6.8 359 -2 102750 46
2005-02-28 09:00:37 51°10.69 2°41.469 7 358 -2 102760 45
2005-02-28 09:00:43 51°10.685 2°41.433 6.3 357 -2 102760 45
2005-02-28 09:00:48 51°10.681 2°41.401 6.7 354 -2 102760 45
2005-02-28 09:00:52 51°10.677 2°41.371 7 353 -2 102760 45
2005-02-28 09:00:57 51°10.673 2°41.342 8 352 -2 102750 44
2005-02-28 09:01:01 51°10.669 2°41.313 7.4 351 -2 102750 44
2005-02-28 09:01:08 51°10.663 2°41.27 7.1 354 -2 102750 44
2005-02-28 09:01:12 51°10.659 2°41.241 7.4 355 -2 102750 44
2005-02-28 09:01:17 51°10.655 2°41.208 7.2 357 -2 102750 45
2005-02-28 09:01:23 51°10.65 2°41.173 7.8 356 -2 102750 45
2005-02-28 09:01:28 51°10.645 2°41.14 7.9 355 -2 102750 45
2005-02-28 09:01:33 51°10.641 2°41.108 7.7 355 -2 102750 45
2005-02-28 09:01:37 51°10.637 2°41.079 8 357 -2 102750 45
2005-02-28 09:01:42 51°10.632 2°41.046 8.1 352 -2 102750 45
2005-02-28 09:01:47 51°10.628 2°41.016 7.3 350 -1.9 102750 45
2005-02-28 09:01:53 51°10.623 2°40.978 6.8 355 -1.9 102750 45
2005-02-28 09:01:57 51°10.619 2°40.948 7 353 -1.9 102750 45
2005-02-28 09:02:03 51°10.614 2°40.912 7.3 352 -1.9 102750 45
2005-02-28 09:02:07 51°10.611 2°40.886 6.6 354 -1.9 102750 45
2005-02-28 09:02:13 51°10.605 2°40.847 7 357 -1.9 102750 45
2005-02-28 09:02:17 51°10.601 2°40.818 7.1 351 -1.9 102750 45
2005-02-28 09:02:23 51°10.596 2°40.782 7.9 355 -1.9 102750 45
2005-02-28 09:02:27 51°10.592 2°40.756 7.5 354 -2 102750 45
2005-02-28 09:02:33 51°10.587 2°40.716 8 351 -2 102750 45
2005-02-28 09:02:37 51°10.583 2°40.691 8 357 -1.9 102760 45
2005-02-28 09:02:43 51°10.578 2°40.652 7.5 354 -1.9 102760 45
2005-02-28 09:02:48 51°10.573 2°40.622 7.1 355 -1.9 102750 45
2005-02-28 09:02:53 51°10.569 2°40.587 7.3 352 -1.9 102750 45
2005-02-28 09:02:57 51°10.564 2°40.56 6.3 357 -1.9 102750 45
2005-02-28 09:03:02 51°10.56 2°40.531 5.9 347 -1.9 102750 45
2005-02-28 09:03:07 51°10.557 2°40.506 5.6 352 -1.9 102750 46
2005-02-28 09:03:13 51°10.552 2°40.476 5.3 356 -1.9 102750 46
2005-02-28 09:03:18 51°10.548 2°40.452 5.2 349 -1.9 102750 45
2005-02-28 09:03:22 51°10.543 2°40.433 4.7 348 -1.9 102750 45
2005-02-28 09:03:28 51°10.538 2°40.41 4.5 345 -1.9 102770 45
2005-02-28 09:03:33 51°10.533 2°40.391 5.1 352 -1.9 102770 45
2005-02-28 09:03:37 51°10.529 2°40.377 4.8 347 -1.9 102780 45
2005-02-28 09:03:42 51°10.523 2°40.359 4.4 351 -1.9 102780 45
2005-02-28 09:03:48 51°10.517 2°40.343 4.7 351 -1.9 102780 45
2005-02-28 09:03:53 51°10.513 2°40.328 4 348 -1.9 102780 45
2005-02-28 09:03:57 51°10.508 2°40.316 3.8 352 -1.9 102780 45
2005-02-28 09:04:03 51°10.502 2°40.301 3.6 343 -1.9 102780 45
2005-02-28 09:04:07 51°10.499 2°40.291 3.4 343 -1.9 102780 45
2005-02-28 09:04:12 51°10.493 2°40.278 3.7 343 -1.9 102780 45
2005-02-28 09:04:18 51°10.488 2°40.265 3.6 345 -1.9 102780 45
2005-02-28 09:04:22 51°10.484 2°40.256 3.2 345 -1.9 102780 45
2005-02-28 09:04:27 51°10.479 2°40.246 3 345 -1.9 102780 44
2005-02-28 09:04:32 51°10.474 2°40.235 3.7 343 -1.9 102780 44
2005-02-28 09:04:37 51°10.47 2°40.226 3.9 337 -1.9 102780 44
2005-02-28 09:04:43 51°10.465 2°40.215 3.4 344 -1.9 102780 44
2005-02-28 09:04:47 51°10.461 2°40.208 3.2 340 -1.9 102780 45
2005-02-28 09:04:52 51°10.457 2°40.197 3.1 334 -1.9 102780 45
2005-02-28 09:04:57 51°10.453 2°40.189 3.2 343 -1.8 102780 45
2005-02-28 09:05:03 51°10.449 2°40.179 3.2 335 -1.8 102780 45
2005-02-28 09:05:07 51°10.446 2°40.17 2.6 343 -1.8 102780 45
2005-02-28 09:05:13 51°10.441 2°40.158 3 340 -1.8 102780 45
2005-02-28 09:05:17 51°10.437 2°40.148 3 338 -1.8 102770 44
2005-02-28 09:05:23 51°10.434 2°40.135 2.9 335 -1.8 102770 44
2005-02-28 09:05:27 51°10.431 2°40.124 3.3 342 -1.8 102770 44
2005-02-28 09:05:33 51°10.428 2°40.107 3.3 340 -1.8 102770 44
2005-02-28 09:05:37 51°10.425 2°40.094 3.4 348 -1.8 102780 44
2005-02-28 09:05:43 51°10.421 2°40.075 3.7 342 -1.8 102780 44
2005-02-28 09:05:47 51°10.419 2°40.061 3.9 344 -1.8 102770 44
2005-02-28 09:05:53 51°10.415 2°40.037 4.5 340 -1.8 102770 44
2005-02-28 09:05:57 51°10.412 2°40.018 4.9 345 -1.8 102770 43
2005-02-28 09:06:02 51°10.408 2°39.998 4.8 339 -1.8 102770 43
2005-02-28 09:06:07 51°10.405 2°39.975 4.6 342 -1.7 102770 43
2005-02-28 09:06:13 51°10.4 2°39.946 4.8 340 -1.7 102770 43
2005-02-28 09:06:17 51°10.398 2°39.923 5.1 338 -1.8 102760 44
2005-02-28 09:06:23 51°10.393 2°39.895 5 348 -1.8 102760 44
2005-02-28 09:06:27 51°10.39 2°39.873 5.6 340 -1.7 102760 44
2005-02-28 09:06:33 51°10.385 2°39.839 5.7 349 -1.7 102760 44
2005-02-28 09:06:38 51°10.38 2°39.81 6.5 349 -1.7 102760 44
2005-02-28 09:06:43 51°10.375 2°39.782 7.4 343 -1.7 102760 44
2005-02-28 09:06:47 51°10.372 2°39.758 6.4 350 -1.7 102760 44
2005-02-28 09:06:52 51°10.367 2°39.725 6.5 344 -1.7 102760 44
2005-02-28 09:06:57 51°10.362 2°39.695 6.5 349 -1.7 102750 44
2005-02-28 09:07:03 51°10.357 2°39.661 7.5 346 -1.7 102750 44
2005-02-28 09:07:08 51°10.353 2°39.633 6.9 350 -1.7 102750 45
2005-02-28 09:07:13 51°10.348 2°39.6 7.4 350 -1.7 102750 45
2005-02-28 09:07:17 51°10.344 2°39.573 7 352 -1.7 102750 44
2005-02-28 09:07:23 51°10.339 2°39.539 7.2 349 -1.7 102750 44
2005-02-28 09:07:28 51°10.335 2°39.508 7.1 348 -1.7 102750 44
2005-02-28 09:07:33 51°10.33 2°39.478 6.8 345 -1.7 102750 44
2005-02-28 09:07:37 51°10.326 2°39.453 7.1 346 -1.7 102750 45
2005-02-28 09:07:43 51°10.321 2°39.417 7.2 348 -1.7 102750 45
2005-02-28 09:07:47 51°10.317 2°39.392 6.4 348 -1.7 102750 47
2005-02-28 09:07:53 51°10.312 2°39.355 6.8 347 -1.7 102750 47
2005-02-28 09:07:57 51°10.308 2°39.331 6.4 346 -1.7 102750 46
2005-02-28 09:08:03 51°10.303 2°39.294 6.4 347 -1.7 102750 46
2005-02-28 09:08:08 51°10.299 2°39.266 6.6 344 -1.7 102750 46
2005-02-28 09:08:13 51°10.293 2°39.232 6.5 344 -1.7 102750 46
2005-02-28 09:08:17 51°10.289 2°39.205 7.5 352 -1.7 102760 45
2005-02-28 09:08:22 51°10.284 2°39.174 7.2 346 -1.7 102760 45
2005-02-28 09:08:27 51°10.28 2°39.147 8 346 -1.7 102750 45
2005-02-28 09:08:33 51°10.275 2°39.109 7.2 351 -1.7 102750 45
2005-02-28 09:08:37 51°10.27 2°39.082 7.1 346 -1.7 102750 45
2005-02-28 09:08:43 51°10.265 2°39.048 7.5 349 -1.7 102750 45
2005-02-28 09:08:47 51°10.262 2°39.023 7.2 350 -1.7 102750 45
2005-02-28 09:08:52 51°10.257 2°38.995 7.1 350 -1.7 102750 45
2005-02-28 09:08:57 51°10.252 2°38.958 7 344 -1.7 102750 45
2005-02-28 09:09:03 51°10.247 2°38.923 6.8 345 -1.7 102750 45
2005-02-28 09:09:07 51°10.243 2°38.899 7 343 -1.7 102750 44
2005-02-28 09:09:13 51°10.238 2°38.862 6.9 343 -1.7 102750 44
2005-02-28 09:09:17 51°10.235 2°38.834 6.5 347 -1.7 102750 44
2005-02-28 09:09:23 51°10.23 2°38.8 6.4 349 -1.7 102750 44
2005-02-28 09:09:27 51°10.226 2°38.776 6 348 -1.7 102750 43
2005-02-28 09:09:33 51°10.221 2°38.739 5.5 345 -1.7 102750 43
2005-02-28 09:09:37 51°10.217 2°38.712 6.4 351 -1.7 102750 44
2005-02-28 09:09:43 51°10.212 2°38.678 6.4 347 -1.7 102750 44
2005-02-28 09:09:47 51°10.209 2°38.654 5.9 354 -1.7 102750 44
2005-02-28 09:09:53 51°10.203 2°38.617 6.7 354 -1.7 102750 44
2005-02-28 09:09:57 51°10.199 2°38.59 6.8 352 -1.7 102750 44
2005-02-28 09:10:01 51°10.196 2°38.568 5.8 354 -1.7 102750 44
2005-02-28 09:10:08 51°10.19 2°38.528 6.5 351 -1.7 102750 45
2005-02-28 09:10:13 51°10.185 2°38.494 6.2 354 -1.7 102750 45
2005-02-28 09:10:17 51°10.181 2°38.467 6.1 353 -1.7 102760 45
2005-02-28 09:10:21 51°10.178 2°38.445 5.9 353 -1.7 102760 45
2005-02-28 09:10:27 51°10.172 2°38.408 6.1 355 -1.7 102750 44
2005-02-28 09:10:33 51°10.166 2°38.37 6.2 351 -1.7 102750 44
2005-02-28 09:10:37 51°10.162 2°38.342 5.8 1 -1.7 102750 43
2005-02-28 09:10:41 51°10.159 2°38.317 7.1 349 -1.7 102750 43
2005-02-28 09:10:47 51°10.154 2°38.283 6.7 359 -1.7 102750 44
2005-02-28 09:10:53 51°10.148 2°38.246 7.3 350 -1.7 102750 44
2005-02-28 09:10:58 51°10.145 2°38.215 7.3 353 -1.7 102760 45
2005-02-28 09:11:01 51°10.141 2°38.193 6.7 359 -1.7 102760 45
2005-02-28 09:11:07 51°10.136 2°38.158 6.4 360 -1.7 102760 45
2005-02-28 09:11:12 51°10.132 2°38.124 7 348 -1.7 102760 45
2005-02-28 09:11:17 51°10.128 2°38.093 6.6 354 -1.7 102750 47
2005-02-28 09:11:23 51°10.123 2°38.058 8.1 350 -1.7 102750 47
2005-02-28 09:11:28 51°10.119 2°38.027 7.4 349 -1.7 102770 45
2005-02-28 09:11:32 51°10.116 2°37.998 7.4 352 -1.7 102770 45
2005-02-28 09:11:37 51°10.112 2°37.97 7.1 350 -1.7 102750 45
2005-02-28 09:11:43 51°10.107 2°37.933 7.4 352 -1.7 102750 45
2005-02-28 09:11:48 51°10.103 2°37.904 8.1 352 -1.7 102760 45
2005-02-28 09:11:53 51°10.099 2°37.87 8.8 356 -1.7 102760 45
2005-02-28 09:11:57 51°10.095 2°37.842 8.8 357 -1.7 102750 45
2005-02-28 09:12:03 51°10.09 2°37.808 8.8 356 -1.7 102750 45
2005-02-28 09:12:08 51°10.086 2°37.779 7.9 353 -1.7 102750 44
2005-02-28 09:12:12 51°10.082 2°37.748 7.6 353 -1.7 102750 44
2005-02-28 09:12:17 51°10.078 2°37.717 8.1 354 -1.7 102750 45
2005-02-28 09:12:22 51°10.074 2°37.688 8.1 352 -1.7 102750 45
2005-02-28 09:12:28 51°10.068 2°37.65 7 350 -1.7 102750 44
2005-02-28 09:12:33 51°10.065 2°37.619 7.5 357 -1.7 102750 44
2005-02-28 09:12:38 51°10.06 2°37.589 8.3 351 -1.7 102750 43
2005-02-28 09:12:43 51°10.056 2°37.557 7.4 355 -1.7 102750 43
2005-02-28 09:12:47 51°10.052 2°37.532 7.7 351 -1.7 102750 44
2005-02-28 09:12:53 51°10.047 2°37.494 7.5 349 -1.7 102750 44
2005-02-28 09:12:58 51°10.043 2°37.462 7.4 355 -1.7 102750 44
2005-02-28 09:13:03 51°10.039 2°37.431 7.4 355 -1.7 102750 44
2005-02-28 09:13:08 51°10.034 2°37.403 7.5 354 -1.7 102750 44
2005-02-28 09:13:13 51°10.03 2°37.369 6.6 350 -1.7 102750 44
2005-02-28 09:13:17 51°10.026 2°37.34 7 351 -1.7 102750 44
2005-02-28 09:13:22 51°10.022 2°37.311 6.9 350 -1.7 102750 44
2005-02-28 09:13:27 51°10.017 2°37.28 6.5 351 -1.7 102750 44
2005-02-28 09:13:32 51°10.013 2°37.246 6.3 351 -1.7 102750 44
2005-02-28 09:13:38 51°10.008 2°37.211 6 350 -1.8 102750 44
2005-02-28 09:13:43 51°10.005 2°37.179 6.3 352 -1.8 102750 44
2005-02-28 09:13:47 51°10.001 2°37.154 6.4 352 -1.8 102750 44
2005-02-28 09:13:53 51°9.998 2°37.115 6.1 350 -1.8 102750 44
2005-02-28 09:13:58 51°9.995 2°37.083 6.7 354 -1.8 102750 44
2005-02-28 09:14:03 51°9.992 2°37.051 6.9 347 -1.8 102750 44
2005-02-28 09:14:08 51°9.99 2°37.022 7.5 345 -1.7 102750 44
2005-02-28 09:14:13 51°9.988 2°36.987 7 352 -1.7 102750 44
2005-02-28 09:14:17 51°9.984 2°36.958 7.2 348 -1.7 102750 44
2005-02-28 09:14:23 51°9.982 2°36.923 7.4 348 -1.7 102750 44
2005-02-28 09:14:28 51°9.978 2°36.891 7.7 350 -1.7 102750 44
2005-02-28 09:14:32 51°9.976 2°36.862 7.4 347 -1.7 102750 44
2005-02-28 09:14:38 51°9.972 2°36.827 7.3 348 -1.7 102760 46
2005-02-28 09:14:41 51°9.97 2°36.805 7.2 350 -1.7 102760 46
2005-02-28 09:14:48 51°9.966 2°36.766 6.9 347 -1.7 102740 45
2005-02-28 09:14:53 51°9.966 2°36.731 6.3 345 -1.7 102740 45
2005-02-28 09:14:57 51°9.965 2°36.702 5.9 348 -1.7 102740 45
2005-02-28 09:15:02 51°9.965 2°36.67 6.4 344 -1.7 102740 45
2005-02-28 09:15:07 51°9.966 2°36.641 6 347 -1.7 102750 45
2005-02-28 09:15:13 51°9.968 2°36.602 5.9 345 -1.7 102750 45
2005-02-28 09:15:17 51°9.969 2°36.574 5.8 348 -1.7 102750 44
2005-02-28 09:15:21 51°9.97 2°36.548 6.9 352 -1.7 102750 44
2005-02-28 09:15:27 51°9.972 2°36.512 6.7 353 -1.7 102750 44
2005-02-28 09:15:33 51°9.974 2°36.474 6.6 355 -1.7 102750 44
2005-02-28 09:15:37 51°9.975 2°36.445 6.5 357 -1.7 102750 45
2005-02-28 09:15:43 51°9.978 2°36.41 6.2 359 -1.7 102750 45
2005-02-28 09:15:47 51°9.979 2°36.383 5.8 356 -1.7 102760 45
2005-02-28 09:15:53 51°9.981 2°36.345 6.3 348 -1.7 102760 45
2005-02-28 09:15:57 51°9.983 2°36.317 5.5 350 -1.7 102750 44
2005-02-28 09:16:03 51°9.984 2°36.281 5.9 350 -1.7 102750 44
2005-02-28 09:16:08 51°9.986 2°36.249 6.2 349 -1.7 102740 43
2005-02-28 09:16:13 51°9.988 2°36.217 5.6 351 -1.7 102740 43
2005-02-28 09:16:17 51°9.991 2°36.188 6 345 -1.7 102750 43
2005-02-28 09:16:23 51°9.996 2°36.154 5.4 351 -1.7 102750 43
2005-02-28 09:16:28 51°10.001 2°36.126 5.6 353 -1.7 102750 44
2005-02-28 09:16:33 51°10.009 2°36.094 5.6 353 -1.7 102750 44
2005-02-28 09:16:37 51°10.017 2°36.069 5.3 346 -1.7 102750 43
2005-02-28 09:16:42 51°10.026 2°36.042 5.7 348 -1.7 102750 43
2005-02-28 09:16:48 51°10.037 2°36.011 5.3 351 -1.7 102750 43
2005-02-28 09:16:52 51°10.046 2°35.987 5.8 353 -1.7 102750 43
2005-02-28 09:16:57 51°10.056 2°35.961 5.2 354 -1.7 102740 43
2005-02-28 09:17:03 51°10.068 2°35.931 6.5 349 -1.7 102740 43
2005-02-28 09:17:08 51°10.079 2°35.906 6.1 344 -1.7 102750 44
2005-02-28 09:17:13 51°10.09 2°35.88 6 348 -1.7 102750 44
2005-02-28 09:17:17 51°10.1 2°35.857 6.2 343 -1.7 102750 45
2005-02-28 09:17:22 51°10.112 2°35.833 6.5 346 -1.7 102750 45
2005-02-28 09:17:27 51°10.123 2°35.811 6.1 346 -1.7 102750 47
2005-02-28 09:17:33 51°10.137 2°35.783 6.1 351 -1.7 102750 47
2005-02-28 09:17:37 51°10.149 2°35.763 5.3 356 -1.7 102750 46
2005-02-28 09:17:43 51°10.165 2°35.742 5.1 356 -1.7 102750 46
2005-02-28 09:17:47 51°10.176 2°35.727 4.6 358 -1.7 102740 47
2005-02-28 09:17:52 51°10.19 2°35.711 4.2 353 -1.7 102740 47
2005-02-28 09:17:57 51°10.207 2°35.692 4.1 353 -1.7 102740 47
2005-02-28 09:18:03 51°10.224 2°35.675 4.3 349 -1.7 102740 47
2005-02-28 09:18:07 51°10.237 2°35.663 5.1 358 -1.7 102740 46
2005-02-28 09:18:13 51°10.256 2°35.648 5 358 -1.7 102740 46
2005-02-28 09:18:17 51°10.269 2°35.639 4.9 358 -1.7 102750 46
2005-02-28 09:18:23 51°10.29 2°35.629 4.5 4 -1.7 102750 46
2005-02-28 09:18:27 51°10.304 2°35.623 4.3 12 -1.7 102750 46
2005-02-28 09:18:32 51°10.323 2°35.617 4.3 8 -1.7 102750 46
2005-02-28 09:18:37 51°10.341 2°35.614 4.4 9 -1.7 102750 46
2005-02-28 09:18:43 51°10.361 2°35.612 4.6 7 -1.7 102750 46
2005-02-28 09:18:48 51°10.377 2°35.611 3.9 10 -1.7 102750 46
2005-02-28 09:18:53 51°10.395 2°35.61 4.1 10 -1.7 102750 46
2005-02-28 09:18:57 51°10.411 2°35.611 5 14 -1.7 102750 45
2005-02-28 09:19:01 51°10.423 2°35.612 4.7 15 -1.7 102750 45
2005-02-28 09:19:08 51°10.447 2°35.617 4.9 19 -1.7 102750 46
2005-02-28 09:19:12 51°10.462 2°35.623 5 14 -1.7 102750 46
2005-02-28 09:19:17 51°10.478 2°35.63 4.5 17 -1.7 102750 46
2005-02-28 09:19:23 51°10.495 2°35.641 5.1 17 -1.7 102750 46
2005-02-28 09:19:28 51°10.51 2°35.653 4.9 18 -1.7 102750 47
2005-02-28 09:19:33 51°10.525 2°35.666 5.1 20 -1.7 102750 47
2005-02-28 09:19:37 51°10.537 2°35.678 5.2 24 -1.7 102750 48
2005-02-28 09:19:43 51°10.553 2°35.694 5.3 26 -1.7 102750 48
2005-02-28 09:19:47 51°10.564 2°35.706 5.4 24 -1.7 102740 49
2005-02-28 09:19:53 51°10.581 2°35.724 5.5 24 -1.7 102740 49
2005-02-28 09:19:57 51°10.593 2°35.737 4.9 22 -1.7 102750 49
2005-02-28 09:20:03 51°10.608 2°35.752 5.3 23 -1.7 102750 49
2005-02-28 09:20:07 51°10.62 2°35.764 5.1 24 -1.7 102750 47
2005-02-28 09:20:13 51°10.637 2°35.781 4.7 23 -1.7 102750 47
2005-02-28 09:20:17 51°10.65 2°35.793 4.6 23 -1.7 102750 47
2005-02-28 09:20:23 51°10.666 2°35.808 4.7 19 -1.7 102750 47
2005-02-28 09:20:27 51°10.678 2°35.82 4.7 23 -1.8 102740 47
2005-02-28 09:20:33 51°10.695 2°35.837 4.9 24 -1.8 102740 47
2005-02-28 09:20:37 51°10.708 2°35.851 4.5 23 -1.8 102740 47
2005-02-28 09:20:43 51°10.723 2°35.868 5.5 24 -1.8 102740 47
2005-02-28 09:20:48 51°10.736 2°35.883 6.3 29 -1.8 102740 47
2005-02-28 09:20:53 51°10.75 2°35.9 5.8 26 -1.8 102740 47
2005-02-28 09:20:57 51°10.762 2°35.915 5.6 30 -1.8 102740 47
2005-02-28 09:21:03 51°10.777 2°35.933 5.9 28 -1.8 102740 47
2005-02-28 09:21:08 51°10.791 2°35.949 7.1 29 -1.8 102750 48
2005-02-28 09:21:12 51°10.804 2°35.963 6.8 31 -1.8 102750 48
2005-02-28 09:21:17 51°10.818 2°35.979 6.4 30 -1.8 102740 48
2005-02-28 09:21:23 51°10.833 2°35.997 6.6 30 -1.8 102740 48
2005-02-28 09:21:27 51°10.844 2°36.009 6.3 27 -1.8 102740 47
2005-02-28 09:21:33 51°10.861 2°36.027 6.4 23 -1.8 102740 47
2005-02-28 09:21:37 51°10.873 2°36.041 6.2 25 -1.8 102740 46
2005-02-28 09:21:41 51°10.884 2°36.054 6.5 24 -1.8 102740 46
2005-02-28 09:21:48 51°10.902 2°36.073 6.1 24 -1.8 102740 46
2005-02-28 09:21:53 51°10.917 2°36.09 6.1 20 -1.8 102740 46
2005-02-28 09:21:58 51°10.931 2°36.107 6.2 27 -1.8 102740 47
2005-02-28 09:22:02 51°10.942 2°36.119 6 23 -1.8 102740 47
2005-02-28 09:22:07 51°10.955 2°36.135 6.8 26 -1.8 102750 48
2005-02-28 09:22:13 51°10.972 2°36.155 7.1 27 -1.8 102750 48
2005-02-28 09:22:17 51°10.984 2°36.169 6.7 28 -1.8 102750 47
2005-02-28 09:22:23 51°10.999 2°36.187 6.6 25 -1.8 102750 47
2005-02-28 09:22:27 51°11.01 2°36.2 6.7 26 -1.8 102740 47
2005-02-28 09:22:32 51°11.025 2°36.218 6.5 25 -1.8 102740 47
2005-02-28 09:22:37 51°11.037 2°36.232 6.1 23 -1.8 102740 47
2005-02-28 09:22:43 51°11.054 2°36.251 6.3 24 -1.8 102740 47
2005-02-28 09:22:47 51°11.065 2°36.264 6.4 29 -1.7 102740 48
2005-02-28 09:22:53 51°11.081 2°36.282 6 24 -1.7 102740 48
2005-02-28 09:22:58 51°11.095 2°36.299 6 32 -1.8 102730 47
2005-02-28 09:23:03 51°11.108 2°36.314 6.2 24 -1.8 102730 47
2005-02-28 09:23:07 51°11.119 2°36.327 6.1 23 -1.8 102740 46
2005-02-28 09:23:13 51°11.135 2°36.346 6.8 19 -1.8 102740 46
2005-02-28 09:23:18 51°11.149 2°36.362 6.7 24 -1.7 102740 46
2005-02-28 09:23:21 51°11.158 2°36.373 7.1 16 -1.7 102740 46
2005-02-28 09:23:28 51°11.175 2°36.394 6.4 15 -1.8 102740 46
2005-02-28 09:23:33 51°11.189 2°36.409 6.3 21 -1.8 102740 46
2005-02-28 09:23:37 51°11.201 2°36.424 6.5 17 -1.7 102740 47
2005-02-28 09:23:41 51°11.211 2°36.434 6.4 17 -1.7 102740 47
2005-02-28 09:23:48 51°11.23 2°36.457 6.7 19 -1.7 102740 47
2005-02-28 09:23:53 51°11.243 2°36.473 6.3 20 -1.7 102740 47
2005-02-28 09:23:57 51°11.255 2°36.487 6 26 -1.7 102740 46
2005-02-28 09:24:03 51°11.27 2°36.505 6.1 18 -1.7 102740 46
2005-02-28 09:24:07 51°11.281 2°36.517 5.9 20 -1.7 102740 46
2005-02-28 09:24:13 51°11.297 2°36.536 5.6 19 -1.7 102740 46
2005-02-28 09:24:18 51°11.311 2°36.552 5.5 15 -1.7 102740 47
2005-02-28 09:24:21 51°11.32 2°36.563 6 25 -1.7 102740 47
2005-02-28 09:24:27 51°11.335 2°36.579 6.3 24 -1.7 102740 48
2005-02-28 09:24:33 51°11.351 2°36.598 6.4 27 -1.7 102740 48
2005-02-28 09:24:37 51°11.364 2°36.612 6.7 23 -1.7 102740 47
2005-02-28 09:24:43 51°11.379 2°36.629 6.5 26 -1.7 102740 47
2005-02-28 09:24:48 51°11.392 2°36.645 7.2 18 -1.7 102740 47
2005-02-28 09:24:53 51°11.406 2°36.66 6.4 23 -1.7 102740 47
2005-02-28 09:24:57 51°11.418 2°36.674 7.2 20 -1.7 102740 47
2005-02-28 09:25:03 51°11.433 2°36.691 6.2 22 -1.7 102740 47
2005-02-28 09:25:07 51°11.444 2°36.703 6 19 -1.7 102740 48
2005-02-28 09:25:13 51°11.46 2°36.722 6.1 25 -1.7 102740 48
2005-02-28 09:25:17 51°11.471 2°36.733 6.4 21 -1.7 102740 47
2005-02-28 09:25:23 51°11.488 2°36.752 6.3 26 -1.7 102740 47
2005-02-28 09:25:28 51°11.5 2°36.765 5.6 21 -1.7 102730 47
2005-02-28 09:25:32 51°11.513 2°36.78 5.2 22 -1.7 102730 47
2005-02-28 09:25:37 51°11.527 2°36.795 6.2 19 -1.7 102750 46
2005-02-28 09:25:43 51°11.542 2°36.813 7.5 28 -1.7 102750 46
2005-02-28 09:25:48 51°11.555 2°36.827 6.3 23 -1.6 102740 47
2005-02-28 09:25:53 51°11.569 2°36.842 6.7 24 -1.6 102740 47
2005-02-28 09:25:57 51°11.581 2°36.856 6.6 23 -1.7 102730 47
2005-02-28 09:26:02 51°11.594 2°36.87 6.4 21 -1.7 102730 47
2005-02-28 09:26:08 51°11.61 2°36.888 6.6 26 -1.7 102740 48
2005-02-28 09:26:13 51°11.623 2°36.903 5.9 24 -1.7 102740 48
2005-02-28 09:26:18 51°11.636 2°36.918 6 21 -1.7 102730 48
2005-02-28 09:26:23 51°11.649 2°36.934 6.1 18 -1.7 102730 48
2005-02-28 09:26:28 51°11.663 2°36.95 5.4 21 -1.7 102730 47
2005-02-28 09:26:33 51°11.676 2°36.965 5.3 24 -1.7 102730 47
2005-02-28 09:26:37 51°11.688 2°36.979 5.7 20 -1.7 102730 47
2005-02-28 09:26:43 51°11.703 2°36.996 6.1 23 -1.7 102730 47
2005-02-28 09:26:47 51°11.714 2°37.009 6.4 21 -1.7 102730 47
2005-02-28 09:26:53 51°11.73 2°37.027 6 17 -1.7 102730 47
2005-02-28 09:26:58 51°11.744 2°37.043 5.7 19 -1.7 102730 46
2005-02-28 09:27:03 51°11.757 2°37.057 5.5 17 -1.7 102730 46
2005-02-28 09:27:07 51°11.768 2°37.069 6.2 20 -1.7 102730 49
2005-02-28 09:27:13 51°11.784 2°37.088 6.4 20 -1.7 102730 49
2005-02-28 09:27:18 51°11.798 2°37.103 5.9 25 -1.7 102730 48
2005-02-28 09:27:23 51°11.811 2°37.117 6 30 -1.7 102730 48
2005-02-28 09:27:27 51°11.823 2°37.129 5.9 22 -1.7 102730 47
2005-02-28 09:27:33 51°11.839 2°37.147 6 18 -1.7 102730 47
2005-02-28 09:27:38 51°11.852 2°37.163 5.6 25 -1.7 102730 48
2005-02-28 09:27:43 51°11.866 2°37.178 6.2 27 -1.7 102730 48
2005-02-28 09:27:47 51°11.877 2°37.19 5.8 28 -1.7 102730 49
2005-02-28 09:27:53 51°11.893 2°37.209 5.9 25 -1.7 102730 49
2005-02-28 09:27:57 51°11.905 2°37.223 6.3 22 -1.6 102730 51
2005-02-28 09:28:03 51°11.92 2°37.24 7.4 20 -1.6 102730 51
2005-02-28 09:28:07 51°11.931 2°37.252 6 19 -1.6 102730 49
2005-02-28 09:28:13 51°11.946 2°37.27 5.8 26 -1.6 102730 49
2005-02-28 09:28:17 51°11.959 2°37.283 6.5 19 -1.6 102740 49
2005-02-28 09:28:22 51°11.973 2°37.298 5.9 21 -1.6 102740 49
2005-02-28 09:28:28 51°11.987 2°37.314 5.6 20 -1.6 102730 50
2005-02-28 09:28:33 51°12.001 2°37.329 5.7 20 -1.6 102730 50
2005-02-28 09:28:37 51°12.014 2°37.342 5.2 23 -1.6 102730 47
2005-02-28 09:28:43 51°12.029 2°37.359 5.1 21 -1.6 102730 47
2005-02-28 09:28:48 51°12.043 2°37.374 4.9 24 -1.6 102730 46
2005-02-28 09:28:53 51°12.056 2°37.388 5.1 23 -1.6 102730 46
2005-02-28 09:28:58 51°12.07 2°37.404 6 26 -1.7 102730 46
2005-02-28 09:29:03 51°12.083 2°37.418 6.5 29 -1.7 102730 46
2005-02-28 09:29:08 51°12.096 2°37.432 6.3 26 -1.7 102730 47
2005-02-28 09:29:13 51°12.111 2°37.448 6.4 25 -1.7 102730 47
2005-02-28 09:29:17 51°12.123 2°37.461 6 24 -1.7 102730 49
2005-02-28 09:29:23 51°12.138 2°37.478 6 21 -1.7 102730 49
2005-02-28 09:29:27 51°12.149 2°37.491 5 22 -1.7 102720 50
2005-02-28 09:29:32 51°12.163 2°37.506 4.7 25 -1.7 102720 50
2005-02-28 09:29:38 51°12.178 2°37.523 5.3 19 -1.6 102730 50
2005-02-28 09:29:43 51°12.191 2°37.539 5.2 24 -1.6 102730 50
2005-02-28 09:29:47 51°12.202 2°37.55 5.6 22 -1.6 102730 48
2005-02-28 09:29:53 51°12.218 2°37.569 5.6 26 -1.6 102730 48
2005-02-28 09:29:57 51°12.229 2°37.581 6.1 25 -1.6 102730 47
2005-02-28 09:30:03 51°12.245 2°37.6 6.2 25 -1.6 102730 47
2005-02-28 09:30:07 51°12.256 2°37.611 6 27 -1.6 102730 48
2005-02-28 09:30:13 51°12.272 2°37.629 6.8 25 -1.6 102730 48
2005-02-28 09:30:18 51°12.286 2°37.644 7 26 -1.6 102730 49
2005-02-28 09:30:21 51°12.295 2°37.654 6.7 27 -1.6 102730 49
2005-02-28 09:30:28 51°12.313 2°37.674 6.9 26 -1.6 102720 49
2005-02-28 09:30:33 51°12.326 2°37.689 6 27 -1.6 102720 49
2005-02-28 09:30:37 51°12.339 2°37.703 6 27 -1.6 102730 49
2005-02-28 09:30:42 51°12.351 2°37.717 6.1 28 -1.6 102730 49
2005-02-28 09:30:48 51°12.367 2°37.735 5.7 26 -1.6 102730 47
2005-02-28 09:30:53 51°12.38 2°37.751 5.6 28 -1.6 102730 47
2005-02-28 09:30:58 51°12.393 2°37.766 6.4 25 -1.7 102740 47
2005-02-28 09:31:03 51°12.407 2°37.782 6 26 -1.7 102740 47
2005-02-28 09:31:08 51°12.42 2°37.795 5.7 19 -1.6 102730 48
2005-02-28 09:31:13 51°12.434 2°37.812 5.7 25 -1.6 102730 48
2005-02-28 09:31:17 51°12.446 2°37.825 5.7 19 -1.6 102730 47
2005-02-28 09:31:23 51°12.461 2°37.842 6.4 26 -1.6 102730 47
2005-02-28 09:31:27 51°12.472 2°37.854 6.8 28 -1.6 102730 49
2005-02-28 09:31:33 51°12.488 2°37.872 6.5 25 -1.6 102720 50
2005-02-28 09:31:38 51°12.501 2°37.888 6.3 30 -1.6 102720 50
2005-02-28 09:31:43 51°12.515 2°37.903 6.7 25 -1.6 102720 50
2005-02-28 09:31:47 51°12.526 2°37.916 6.4 26 -1.6 102720 50
2005-02-28 09:31:53 51°12.542 2°37.934 5.9 22 -1.6 102720 50
2005-02-28 09:31:58 51°12.555 2°37.95 5.8 21 -1.6 102720 49
2005-02-28 09:32:03 51°12.569 2°37.964 6.1 23 -1.6 102720 49
2005-02-28 09:32:07 51°12.579 2°37.976 6 22 -1.6 102720 51
2005-02-28 09:32:13 51°12.596 2°37.995 5.5 27 -1.6 102720 51
2005-02-28 09:32:18 51°12.61 2°38.01 5.6 24 -1.6 102720 50
2005-02-28 09:32:21 51°12.619 2°38.02 6 27 -1.6 102720 50
2005-02-28 09:32:27 51°12.634 2°38.037 5.7 23 -1.6 102720 50
2005-02-28 09:32:33 51°12.65 2°38.055 5.6 25 -1.6 102720 50
2005-02-28 09:32:37 51°12.662 2°38.069 5.4 23 -1.6 102730 49
2005-02-28 09:32:42 51°12.675 2°38.083 5.1 23 -1.6 102730 49
2005-02-28 09:32:48 51°12.689 2°38.1 4.6 29 -1.6 102720 49
2005-02-28 09:32:52 51°12.703 2°38.114 4.3 26 -1.6 102720 49
2005-02-28 09:32:58 51°12.717 2°38.131 4.7 26 -1.6 102720 49
2005-02-28 09:33:01 51°12.727 2°38.142 5.8 22 -1.6 102720 49
2005-02-28 09:33:08 51°12.745 2°38.161 5 30 -1.6 102720 49
2005-02-28 09:33:13 51°12.759 2°38.175 5 25 -1.6 102720 49
2005-02-28 09:33:17 51°12.771 2°38.189 5.4 -999 -1.6 102720 48